Dong Hao — 9LU2555 — position and weather

sailwx.info

Track history (hours):
 
Tides and Currents Weather Stations Pressure Air Temp Water Temp Dewpoint Dewpoint Depression Visibility Wind Speed Wind Dir Waves Ship Positions

Dong Hao

Last reported at 2018-Jun-21 11:29 UTC. Time now 2018-Jun-21 11:48 UTC.
Position N 34°43' E 135°20'.

Length 76 m; draft 3.4 m.

Type: Cargo ship. MMSI: 667001752.

Date/timePositionNaut miles runAvg speedWind from/ knotsBaromVisibWave heightAir tempDewpointWater temp
2018-Jun-21 11:29N 34°43' E 135°20'0 0.0
2018-Jun-21 10:41N 34°43' E 135°20'0 0.0
2018-Jun-21 10:23N 34°43' E 135°20'0 0.0
2018-Jun-21 09:59N 34°43' E 135°20'0 0.0
2018-Jun-21 09:29N 34°43' E 135°20'0 0.0
2018-Jun-21 08:35N 34°43' E 135°20'0 0.0
2018-Jun-21 08:23N 34°43' E 135°20'0 0.0
2018-Jun-21 06:59N 34°43' E 135°20'0 0.0
2018-Jun-21 06:23N 34°43' E 135°20'0 0.0
2018-Jun-21 05:47N 34°43' E 135°20'0 0.0
2018-Jun-21 05:29N 34°43' E 135°20'0 0.0
2018-Jun-21 04:59N 34°43' E 135°20'0 0.0
2018-Jun-21 04:29N 34°43' E 135°20'0 0.0
2018-Jun-21 03:17N 34°43' E 135°20'0 0.0
2018-Jun-21 02:47N 34°43' E 135°20'0 0.0
2018-Jun-21 02:23N 34°43' E 135°20'0 0.0
2018-Jun-21 01:59N 34°43' E 135°20'0 0.0
2018-Jun-21 01:05N 34°43' E 135°20'0 0.0
2018-Jun-21 00:47N 34°43' E 135°20'0 0.0
2018-Jun-20 23:17N 34°43' E 135°20'0 0.0
2018-Jun-20 22:17N 34°43' E 135°20'0 0.0
2018-Jun-20 21:59N 34°43' E 135°20'1 1.9
2018-Jun-20 21:30N 34°42' E 135°21'2 2.2
2018-Jun-20 20:34N 34°40' E 135°20'0 0.0
2018-Jun-20 20:28N 34°40' E 135°20'0 0.0
2018-Jun-20 19:58N 34°40' E 135°20'0 0.0
2018-Jun-20 19:28N 34°40' E 135°20'0 0.0
2018-Jun-20 18:58N 34°40' E 135°20'0 0.0
2018-Jun-20 18:28N 34°40' E 135°20'0 0.0
2018-Jun-20 17:58N 34°40' E 135°20'0 0.0
2018-Jun-20 17:22N 34°40' E 135°20'0 0.0
2018-Jun-20 16:52N 34°40' E 135°20'0 0.0
2018-Jun-20 16:28N 34°40' E 135°20'0 0.0
2018-Jun-20 15:58N 34°40' E 135°20'0 0.0
2018-Jun-20 15:22N 34°40' E 135°20'0 0.0
2018-Jun-20 14:58N 34°40' E 135°20'0 0.0
2018-Jun-20 14:28N 34°40' E 135°20'0 0.0
2018-Jun-20 13:58N 34°40' E 135°20'0 0.0
2018-Jun-20 13:28N 34°40' E 135°20'0 0.0
2018-Jun-20 12:58N 34°40' E 135°20'0 0.0
2018-Jun-20 12:22N 34°40' E 135°20'0 0.0
2018-Jun-20 11:58N 34°40' E 135°20'0 0.0
2018-Jun-20 11:28N 34°40' E 135°20'0 0.1
2018-Jun-20 10:58N 34°40' E 135°20'0 0.0
2018-Jun-20 10:28N 34°40' E 135°20'0 0.1
2018-Jun-20 09:58N 34°40' E 135°20'0 0.0
2018-Jun-20 09:22N 34°40' E 135°20'0 0.0
2018-Jun-20 08:52N 34°40' E 135°20'0 0.0
2018-Jun-20 08:22N 34°40' E 135°20'0 0.0
2018-Jun-20 07:52N 34°40' E 135°20'0 0.1
2018-Jun-20 07:04N 34°40' E 135°20'0 0.0
2018-Jun-20 06:58N 34°40' E 135°20'0 0.0
2018-Jun-20 06:26N 34°40' E 135°20'1 1.2
2018-Jun-20 06:00N 34°39' E 135°20'510.1
2018-Jun-20 05:30N 34°35' E 135°18'710.0
2018-Jun-20 04:50N 34°28' E 135°21'1 2.4
2018-Jun-20 04:30N 34°27' E 135°21'0 0.0
2018-Jun-19 22:17N 34°27' E 135°21'1 3.1
2018-Jun-19 21:55N 34°28' E 135°21'1 0.6
2018-Jun-19 20:39N 34°29' E 135°20'0 0.0
2018-Jun-19 20:21N 34°29' E 135°20'0 0.0
2018-Jun-19 17:41N 34°29' E 135°20'0 0.0
2018-Jun-19 17:30N 34°29' E 135°20'0 0.0
2018-Jun-19 17:00N 34°29' E 135°20'0 0.0
2018-Jun-19 16:30N 34°29' E 135°20'0 0.0
2018-Jun-19 16:00N 34°29' E 135°20'0 0.0
2018-Jun-19 15:28N 34°29' E 135°20'0 0.0
2018-Jun-19 14:41N 34°29' E 135°20'0 0.0
2018-Jun-19 14:30N 34°29' E 135°20'0 0.0
2018-Jun-19 14:00N 34°29' E 135°20'0 0.0
2018-Jun-19 13:28N 34°29' E 135°20'0 0.0
2018-Jun-19 13:00N 34°29' E 135°20'0 0.0
2018-Jun-19 12:30N 34°29' E 135°20'4 6.0
2018-Jun-19 11:52N 34°31' E 135°16'4 9.6
2018-Jun-19 11:30N 34°33' E 135°13'611.0
2018-Jun-19 11:00N 34°35' E 135°06'1211.0
2018-Jun-19 09:56N 34°34' E 134°52'510.9
2018-Jun-19 09:27N 34°32' E 134°46'510.3
2018-Jun-19 09:01N 34°30' E 134°41'510.2
2018-Jun-19 08:31N 34°29' E 134°35'  
Track history (hours):
 
Tides and Currents Weather Stations Pressure Air Temp Water Temp Dewpoint Dewpoint Depression Visibility Wind Speed Wind Dir Waves Ship Positions

Dong Hao

Last reported at 2018-Jun-21 11:29 UTC. Time now 2018-Jun-21 11:48 UTC.
Position N 34°43' E 135°20'.

Length 76 m; draft 3.4 m.

Type: Cargo ship. MMSI: 667001752.

Date/timePositionNaut miles runAvg speedWind from/ knotsBaromVisibWave heightAir tempDewpointWater temp
2018-Jun-21 11:29N 34°43' E 135°20'0 0.0
2018-Jun-21 10:41N 34°43' E 135°20'0 0.0
2018-Jun-21 10:23N 34°43' E 135°20'0 0.0
2018-Jun-21 09:59N 34°43' E 135°20'0 0.0
2018-Jun-21 09:29N 34°43' E 135°20'0 0.0
2018-Jun-21 08:35N 34°43' E 135°20'0 0.0
2018-Jun-21 08:23N 34°43' E 135°20'0 0.0
2018-Jun-21 06:59N 34°43' E 135°20'0 0.0
2018-Jun-21 06:23N 34°43' E 135°20'0 0.0
2018-Jun-21 05:47N 34°43' E 135°20'0 0.0
2018-Jun-21 05:29N 34°43' E 135°20'0 0.0
2018-Jun-21 04:59N 34°43' E 135°20'0 0.0
2018-Jun-21 04:29N 34°43' E 135°20'0 0.0
2018-Jun-21 03:17N 34°43' E 135°20'0 0.0
2018-Jun-21 02:47N 34°43' E 135°20'0 0.0
2018-Jun-21 02:23N 34°43' E 135°20'0 0.0
2018-Jun-21 01:59N 34°43' E 135°20'0 0.0
2018-Jun-21 01:05N 34°43' E 135°20'0 0.0
2018-Jun-21 00:47N 34°43' E 135°20'0 0.0
2018-Jun-20 23:17N 34°43' E 135°20'0 0.0
2018-Jun-20 22:17N 34°43' E 135°20'0 0.0
2018-Jun-20 21:59N 34°43' E 135°20'1 1.9
2018-Jun-20 21:30N 34°42' E 135°21'2 2.2
2018-Jun-20 20:34N 34°40' E 135°20'0 0.0
2018-Jun-20 20:28N 34°40' E 135°20'0 0.0
2018-Jun-20 19:58N 34°40' E 135°20'0 0.0
2018-Jun-20 19:28N 34°40' E 135°20'0 0.0
2018-Jun-20 18:58N 34°40' E 135°20'0 0.0
2018-Jun-20 18:28N 34°40' E 135°20'0 0.0
2018-Jun-20 17:58N 34°40' E 135°20'0 0.0
2018-Jun-20 17:22N 34°40' E 135°20'0 0.0
2018-Jun-20 16:52N 34°40' E 135°20'0 0.0
2018-Jun-20 16:28N 34°40' E 135°20'0 0.0
2018-Jun-20 15:58N 34°40' E 135°20'0 0.0
2018-Jun-20 15:22N 34°40' E 135°20'0 0.0
2018-Jun-20 14:58N 34°40' E 135°20'0 0.0
2018-Jun-20 14:28N 34°40' E 135°20'0 0.0
2018-Jun-20 13:58N 34°40' E 135°20'0 0.0
2018-Jun-20 13:28N 34°40' E 135°20'0 0.0
2018-Jun-20 12:58N 34°40' E 135°20'0 0.0
2018-Jun-20 12:22N 34°40' E 135°20'0 0.0
2018-Jun-20 11:58N 34°40' E 135°20'0 0.0
2018-Jun-20 11:28N 34°40' E 135°20'0 0.1
2018-Jun-20 10:58N 34°40' E 135°20'0 0.0
2018-Jun-20 10:28N 34°40' E 135°20'0 0.1
2018-Jun-20 09:58N 34°40' E 135°20'0 0.0
2018-Jun-20 09:22N 34°40' E 135°20'0 0.0
2018-Jun-20 08:52N 34°40' E 135°20'0 0.0
2018-Jun-20 08:22N 34°40' E 135°20'0 0.0
2018-Jun-20 07:52N 34°40' E 135°20'0 0.1
2018-Jun-20 07:04N 34°40' E 135°20'0 0.0
2018-Jun-20 06:58N 34°40' E 135°20'0 0.0
2018-Jun-20 06:26N 34°40' E 135°20'1 1.2
2018-Jun-20 06:00N 34°39' E 135°20'510.1
2018-Jun-20 05:30N 34°35' E 135°18'710.0
2018-Jun-20 04:50N 34°28' E 135°21'1 2.4
2018-Jun-20 04:30N 34°27' E 135°21'0 0.0
2018-Jun-19 22:17N 34°27' E 135°21'1 3.1
2018-Jun-19 21:55N 34°28' E 135°21'1 0.6
2018-Jun-19 20:39N 34°29' E 135°20'0 0.0
2018-Jun-19 20:21N 34°29' E 135°20'0 0.0
2018-Jun-19 17:41N 34°29' E 135°20'0 0.0
2018-Jun-19 17:30N 34°29' E 135°20'0 0.0
2018-Jun-19 17:00N 34°29' E 135°20'0 0.0
2018-Jun-19 16:30N 34°29' E 135°20'0 0.0
2018-Jun-19 16:00N 34°29' E 135°20'0 0.0
2018-Jun-19 15:28N 34°29' E 135°20'0 0.0
2018-Jun-19 14:41N 34°29' E 135°20'0 0.0
2018-Jun-19 14:30N 34°29' E 135°20'0 0.0
2018-Jun-19 14:00N 34°29' E 135°20'0 0.0
2018-Jun-19 13:28N 34°29' E 135°20'0 0.0
2018-Jun-19 13:00N 34°29' E 135°20'0 0.0
2018-Jun-19 12:30N 34°29' E 135°20'4 6.0
2018-Jun-19 11:52N 34°31' E 135°16'4 9.6
2018-Jun-19 11:30N 34°33' E 135°13'611.0
2018-Jun-19 11:00N 34°35' E 135°06'1211.0
2018-Jun-19 09:56N 34°34' E 134°52'510.9
2018-Jun-19 09:27N 34°32' E 134°46'510.3
2018-Jun-19 09:01N 34°30' E 134°41'510.2
2018-Jun-19 08:31N 34°29' E 134°35'  

Dump ship's entire track history